University of Nebraska, Nebraska
Current Conditions -  °F | °C
As of 9:54 PM on Saturday 25 Oct 2014 (Local Time) from KLNK Reporting Station
Clear Clear  
Wind Chill: 58°   Ceiling: Unl
Heat Index: 58°   Visibility: 10mi
Dew Point: 45°   Wind: 9mph
Humidity: 62%   Direction: 70°ENE
Pressure: 30.02"   Gusts: NA
Location:  40.8185°N, 96.71°W
Report Text: KLNK 260254Z 07008KT 10SM CLR 14/07 A3002 RMK AO2 SLP164 T01440072 56003
Loading
Personal Weather Stations






























Interactive Weather Map
Tropical Storm Tracking
New forecast layout! Learn more

10-Day Weather Forecast

Advertisements
Track Severe Weather on mobile